createdAt,value
2022-10-04T00:02:20.186Z,3.95
2022-10-04T00:05:16.458Z,4.25
2022-10-04T00:07:56.982Z,4.41
2022-10-04T00:10:34.067Z,4.47
2022-10-04T00:13:16.511Z,4.42
2022-10-04T00:15:51.341Z,4.26
2022-10-04T00:18:31.765Z,4.50
2022-10-04T00:21:02.940Z,4.37
2022-10-04T00:23:42.346Z,4.09
2022-10-04T00:26:29.055Z,4.19
2022-10-04T00:29:25.490Z,4.00
2022-10-04T00:32:16.846Z,4.24
2022-10-04T00:34:54.298Z,4.25
2022-10-04T00:37:29.074Z,3.98
2022-10-04T00:40:02.877Z,3.52
2022-10-04T00:42:46.879Z,3.70
2022-10-04T00:45:25.639Z,3.70
2022-10-04T00:48:09.994Z,3.72
2022-10-04T00:50:44.578Z,3.94
2022-10-04T00:53:23.032Z,3.88
2022-10-04T00:56:02.723Z,3.70
2022-10-04T00:58:36.639Z,3.31
2022-10-04T01:01:06.277Z,2.90
2022-10-04T01:03:38.927Z,3.41
2022-10-04T01:06:11.416Z,3.36
2022-10-04T01:08:49.109Z,3.68
2022-10-04T01:11:29.509Z,3.74
2022-10-04T01:14:13.307Z,3.23
2022-10-04T01:16:52.744Z,3.46
2022-10-04T01:19:25.427Z,3.56
2022-10-04T01:22:11.826Z,3.33
2022-10-04T01:24:46.961Z,3.55
2022-10-04T01:27:47.639Z,3.44
2022-10-04T01:30:20.730Z,3.60
2022-10-04T01:32:52.248Z,3.30
2022-10-04T01:35:24.247Z,3.59
2022-10-04T01:37:52.681Z,3.60
2022-10-04T01:40:21.266Z,2.94
2022-10-04T01:42:55.688Z,2.80
2022-10-04T01:45:48.642Z,3.38
2022-10-04T01:48:25.877Z,3.20
2022-10-04T01:51:07.255Z,3.41
2022-10-04T01:53:59.143Z,3.46
2022-10-04T01:56:43.350Z,3.12
2022-10-04T01:59:42.025Z,3.20
2022-10-04T02:02:46.040Z,2.65
2022-10-04T02:05:21.437Z,3.22
2022-10-04T02:07:51.352Z,3.05
2022-10-04T02:10:30.865Z,3.32
2022-10-04T02:13:04.029Z,2.89
2022-10-04T02:15:40.316Z,3.29
2022-10-04T02:18:26.341Z,3.28
2022-10-04T02:20:59.017Z,3.21
2022-10-04T02:23:30.773Z,3.02
2022-10-04T02:25:59.774Z,3.11
2022-10-04T02:28:31.420Z,3.15
2022-10-04T02:31:38.702Z,3.02
2022-10-04T02:34:10.932Z,3.14
2022-10-04T02:36:42.997Z,2.88
2022-10-04T02:39:14.715Z,3.08
2022-10-04T02:41:49.380Z,3.21
2022-10-04T02:44:38.601Z,3.10
2022-10-04T02:47:19.523Z,3.10
2022-10-04T02:49:53.327Z,3.01
2022-10-04T02:52:33.227Z,2.99
2022-10-04T02:55:28.437Z,2.98
2022-10-04T02:57:59.118Z,2.93
2022-10-04T03:00:32.616Z,2.67
2022-10-04T03:03:24.292Z,2.92
2022-10-04T03:06:19.150Z,2.89
2022-10-04T03:08:52.281Z,2.71
2022-10-04T03:11:35.710Z,2.61
2022-10-04T03:14:10.800Z,2.71
2022-10-04T03:16:44.300Z,2.48
2022-10-04T03:19:16.458Z,2.43
2022-10-04T03:21:48.635Z,2.58
2022-10-04T03:24:23.058Z,2.72
2022-10-04T03:26:55.985Z,2.35
2022-10-04T03:29:27.972Z,2.37
2022-10-04T03:32:06.361Z,2.69
2022-10-04T03:34:44.780Z,2.28
2022-10-04T03:37:19.665Z,2.40
2022-10-04T03:39:58.129Z,2.62
2022-10-04T03:42:32.238Z,2.60
2022-10-04T03:45:20.537Z,2.61
2022-10-04T03:47:51.321Z,2.62
2022-10-04T03:50:26.309Z,2.29
2022-10-04T03:53:11.729Z,2.91
2022-10-04T03:55:49.258Z,2.92
2022-10-04T03:58:26.511Z,2.76
2022-10-04T04:01:14.355Z,2.78
2022-10-04T04:04:22.615Z,2.84
2022-10-04T04:07:14.396Z,2.77
2022-10-04T04:10:14.552Z,2.61
2022-10-04T04:13:02.342Z,2.77
2022-10-04T04:15:34.310Z,2.82
2022-10-04T04:18:12.069Z,3.06
2022-10-04T04:20:50.518Z,2.77
2022-10-04T04:23:38.567Z,2.96
2022-10-04T04:26:39.978Z,3.13
2022-10-04T04:30:02.258Z,3.08
2022-10-04T04:32:58.754Z,3.13
2022-10-04T04:35:39.051Z,3.00
2022-10-04T04:38:20.539Z,2.88
2022-10-04T04:40:51.597Z,2.91
2022-10-04T04:43:21.286Z,3.12
2022-10-04T04:46:08.510Z,3.22
2022-10-04T04:48:39.446Z,3.08
2022-10-04T04:51:26.421Z,3.11
2022-10-04T04:53:58.943Z,2.97
2022-10-04T04:56:34.038Z,2.80
2022-10-04T04:59:08.768Z,2.76
2022-10-04T05:01:50.602Z,2.88
2022-10-04T05:04:24.203Z,2.52
2022-10-04T05:07:17.428Z,2.77
2022-10-04T05:09:45.716Z,2.70
2022-10-04T05:12:17.489Z,2.86
2022-10-04T05:14:52.566Z,2.97
2022-10-04T05:17:32.955Z,3.15
2022-10-04T05:20:06.600Z,3.02
2022-10-04T05:22:42.378Z,3.31
2022-10-04T05:25:19.053Z,3.55
2022-10-04T05:27:47.094Z,3.50
2022-10-04T05:30:31.791Z,3.59
2022-10-04T05:33:10.490Z,3.50
2022-10-04T05:35:56.922Z,3.54
2022-10-04T05:38:52.182Z,3.59
2022-10-04T05:41:28.093Z,3.38
2022-10-04T05:44:05.313Z,3.37
2022-10-04T05:46:35.194Z,3.18
2022-10-04T05:49:16.709Z,3.34
2022-10-04T05:52:13.742Z,3.36
2022-10-04T05:54:43.896Z,3.49
2022-10-04T05:57:51.575Z,3.33
2022-10-04T06:00:46.670Z,3.52
2022-10-04T06:03:52.044Z,3.68
2022-10-04T06:06:30.868Z,3.67
2022-10-04T06:09:27.990Z,3.50
2022-10-04T06:12:12.257Z,3.71
2022-10-04T06:14:59.902Z,3.56
2022-10-04T06:17:42.280Z,3.82
2022-10-04T06:20:16.907Z,3.85
2022-10-04T06:22:48.081Z,3.53
2022-10-04T06:25:27.283Z,3.65
2022-10-04T06:28:26.138Z,3.51
2022-10-04T06:31:33.061Z,3.54
2022-10-04T06:34:35.358Z,3.73
2022-10-04T06:37:28.825Z,3.82
2022-10-04T06:40:36.232Z,3.80
2022-10-04T06:43:33.161Z,3.82
2022-10-04T06:46:37.755Z,3.88
2022-10-04T06:49:42.482Z,3.94
2022-10-04T06:52:50.101Z,3.90
2022-10-04T06:55:53.706Z,4.14
2022-10-04T06:59:21.886Z,4.09
2022-10-04T07:01:52.913Z,4.14
2022-10-04T07:04:27.348Z,4.14
2022-10-04T07:07:49.282Z,4.25
2022-10-04T07:10:37.730Z,4.31
2022-10-04T07:13:04.242Z,4.32
2022-10-04T07:15:45.220Z,4.27
2022-10-04T07:18:19.127Z,4.13
2022-10-04T07:20:49.001Z,3.98
2022-10-04T07:23:28.426Z,4.30
2022-10-04T07:26:08.209Z,4.37
2022-10-04T07:29:01.234Z,4.57
2022-10-04T07:31:34.570Z,4.40
2022-10-04T07:34:10.670Z,4.54
2022-10-04T07:36:57.476Z,4.59
2022-10-04T07:39:43.665Z,4.49
2022-10-04T07:42:36.626Z,4.80
2022-10-04T07:45:08.725Z,4.40
2022-10-04T07:47:35.570Z,4.86
2022-10-04T07:50:24.612Z,5.09
2022-10-04T07:53:21.095Z,4.82
2022-10-04T07:55:57.304Z,4.62
2022-10-04T07:58:45.989Z,4.97
2022-10-04T08:01:33.947Z,4.91
2022-10-04T08:04:32.672Z,5.02
2022-10-04T08:07:02.322Z,5.21
2022-10-04T08:09:36.325Z,5.30
2022-10-04T08:12:12.336Z,5.62
2022-10-04T08:15:16.997Z,5.57
2022-10-04T08:18:41.229Z,5.56
2022-10-04T08:21:14.177Z,5.68
2022-10-04T08:24:11.516Z,5.77
2022-10-04T08:27:22.210Z,5.72
2022-10-04T08:29:51.887Z,6.16
2022-10-04T08:32:23.530Z,6.16
2022-10-04T08:35:16.465Z,6.15
2022-10-04T08:38:02.456Z,5.79
2022-10-04T08:41:15.153Z,6.11
2022-10-04T08:44:13.362Z,6.42
2022-10-04T08:47:05.339Z,6.69
2022-10-04T08:50:24.325Z,6.72
2022-10-04T08:53:16.518Z,6.70
2022-10-04T08:56:10.815Z,6.87
2022-10-04T08:58:52.639Z,7.05
2022-10-04T09:01:42.042Z,6.89
2022-10-04T09:04:33.212Z,7.46
2022-10-04T09:07:12.010Z,7.58
2022-10-04T09:10:13.476Z,7.36
2022-10-04T09:12:57.616Z,7.55
2022-10-04T09:15:37.886Z,7.55
2022-10-04T09:18:32.836Z,7.93
2022-10-04T09:21:11.491Z,7.69
2022-10-04T09:23:38.063Z,8.28
2022-10-04T09:26:20.091Z,8.51
2022-10-04T09:29:03.915Z,8.75
2022-10-04T09:32:19.205Z,8.95
2022-10-04T09:35:06.349Z,9.08
2022-10-04T09:37:57.905Z,8.88
2022-10-04T09:40:53.958Z,8.48
2022-10-04T09:44:01.945Z,8.43
2022-10-04T09:46:56.168Z,8.89
2022-10-04T09:49:32.674Z,9.09
2022-10-04T09:52:17.616Z,9.00
2022-10-04T09:54:56.778Z,8.79
2022-10-04T09:58:08.015Z,9.30
2022-10-04T10:00:54.342Z,9.07
2022-10-04T10:03:53.685Z,9.35
2022-10-04T10:06:35.465Z,9.67
2022-10-04T10:09:11.185Z,9.65
2022-10-04T10:12:21.377Z,9.94
2022-10-04T10:14:47.988Z,9.91
2022-10-04T10:17:37.220Z,9.35
2022-10-04T10:20:23.153Z,9.84
2022-10-04T10:23:06.523Z,9.63
2022-10-04T10:26:08.115Z,10.20
2022-10-04T10:29:12.151Z,10.14
2022-10-04T10:31:54.443Z,10.55
2022-10-04T10:34:53.303Z,10.32
2022-10-04T10:37:53.999Z,10.42
2022-10-04T10:40:41.777Z,10.19
2022-10-04T10:43:15.392Z,10.40
2022-10-04T10:46:04.820Z,10.64
2022-10-04T10:49:06.922Z,10.64
2022-10-04T10:51:42.550Z,11.04
2022-10-04T10:54:34.124Z,11.44
2022-10-04T10:57:25.062Z,11.70
2022-10-04T11:00:22.307Z,11.50
2022-10-04T11:03:12.581Z,11.54
2022-10-04T11:05:52.199Z,11.24
2022-10-04T11:08:37.016Z,11.34
2022-10-04T11:11:34.677Z,11.30
2022-10-04T11:14:48.581Z,11.37
2022-10-04T11:17:27.549Z,11.81
2022-10-04T11:20:18.952Z,11.73
2022-10-04T11:23:22.729Z,11.63
2022-10-04T11:26:27.211Z,11.98
2022-10-04T11:29:10.275Z,12.53
2022-10-04T11:31:55.456Z,13.24
2022-10-04T11:34:59.551Z,13.56
2022-10-04T11:37:49.354Z,14.01
2022-10-04T11:41:03.934Z,14.68
2022-10-04T11:44:00.457Z,14.81
2022-10-04T11:47:02.785Z,15.18
2022-10-04T11:49:56.636Z,15.55
2022-10-04T11:52:26.254Z,15.55
2022-10-04T11:54:58.785Z,16.12
2022-10-04T11:57:57.145Z,16.20
2022-10-04T12:00:26.311Z,16.76
2022-10-04T12:03:28.126Z,16.11
2022-10-04T12:06:22.811Z,16.32
2022-10-04T12:08:55.858Z,16.59
2022-10-04T12:12:13.544Z,16.84
2022-10-04T12:15:12.030Z,17.51
2022-10-04T12:17:42.530Z,17.10
2022-10-04T12:20:40.096Z,17.54
2022-10-04T12:23:12.779Z,17.89
2022-10-04T12:26:19.376Z,17.41
2022-10-04T12:29:25.492Z,17.79
2022-10-04T12:32:00.108Z,17.99
2022-10-04T12:34:40.515Z,18.35
2022-10-04T12:37:22.740Z,18.01
2022-10-04T12:40:18.750Z,17.58
2022-10-04T12:43:04.850Z,17.76
2022-10-04T12:45:39.389Z,18.23
2022-10-04T12:48:14.357Z,18.60
2022-10-04T12:50:47.758Z,17.57
2022-10-04T12:53:31.876Z,16.83
2022-10-04T12:56:21.849Z,16.92
2022-10-04T12:59:07.051Z,17.23
2022-10-04T13:01:45.054Z,17.41
2022-10-04T13:04:32.458Z,17.58
2022-10-04T13:07:11.183Z,18.19
2022-10-04T13:10:24.615Z,18.39
2022-10-04T13:13:19.239Z,19.19
2022-10-04T13:18:52.444Z,19.54
2022-10-04T13:21:39.323Z,19.43
2022-10-04T13:24:32.377Z,19.44
2022-10-04T13:27:05.470Z,19.47
2022-10-04T13:29:54.577Z,19.62
2022-10-04T13:32:30.509Z,19.34
2022-10-04T13:35:15.475Z,20.07
2022-10-04T13:38:19.690Z,19.55
2022-10-04T13:40:56.054Z,19.61
2022-10-04T13:44:01.110Z,19.41
2022-10-04T13:46:52.209Z,19.81
2022-10-04T13:49:56.631Z,20.28
2022-10-04T13:53:04.131Z,19.74
2022-10-04T13:56:11.838Z,19.19
2022-10-04T13:59:00.876Z,19.35
2022-10-04T14:01:44.777Z,19.47
2022-10-04T14:04:39.551Z,19.90
2022-10-04T14:07:21.224Z,20.06
2022-10-04T14:10:15.750Z,20.77
2022-10-04T14:13:10.278Z,20.96
2022-10-04T14:16:00.361Z,20.54
2022-10-04T14:18:42.437Z,19.99
2022-10-04T14:21:40.147Z,20.71
2022-10-04T14:24:15.919Z,20.30
2022-10-04T14:27:04.327Z,20.20
2022-10-04T14:29:52.869Z,20.47
2022-10-04T14:32:38.267Z,20.64
2022-10-04T14:35:10.318Z,20.70
2022-10-04T14:37:49.268Z,20.64
2022-10-04T14:40:37.224Z,20.93
2022-10-04T14:43:17.310Z,19.67
2022-10-04T14:46:07.378Z,20.76
2022-10-04T14:48:48.966Z,20.60
2022-10-04T14:51:35.810Z,20.67
2022-10-04T14:54:09.723Z,20.97
2022-10-04T14:57:00.654Z,20.81
2022-10-04T14:59:58.784Z,20.66
2022-10-04T15:02:31.808Z,20.54
2022-10-04T15:05:08.229Z,20.76
2022-10-04T15:07:41.505Z,19.45
2022-10-04T15:10:35.763Z,19.00
2022-10-04T15:13:35.417Z,18.92
2022-10-04T15:16:32.486Z,18.42
2022-10-04T15:19:09.088Z,18.43
2022-10-04T15:22:12.675Z,17.42
2022-10-04T15:24:42.492Z,16.83
2022-10-04T15:27:33.983Z,16.50
2022-10-04T15:30:19.265Z,16.01
2022-10-04T15:33:12.164Z,15.55
2022-10-04T15:35:42.541Z,15.59
2022-10-04T15:38:29.697Z,15.27
2022-10-04T15:41:03.730Z,14.99
2022-10-04T15:44:12.771Z,15.24
2022-10-04T15:46:47.020Z,14.59
2022-10-04T15:49:55.302Z,14.86
2022-10-04T15:52:53.764Z,14.80
2022-10-04T15:55:34.061Z,14.64
2022-10-04T15:58:29.281Z,14.42
2022-10-04T16:01:24.297Z,14.38
2022-10-04T16:04:16.277Z,14.43
2022-10-04T16:07:07.952Z,14.27
2022-10-04T16:10:20.019Z,14.22
2022-10-04T16:12:46.765Z,14.21
2022-10-04T16:15:39.917Z,14.10
2022-10-04T16:18:35.182Z,14.05
2022-10-04T16:21:25.523Z,13.97
2022-10-04T16:24:17.862Z,13.87
2022-10-04T16:26:44.850Z,13.67
2022-10-04T16:29:33.760Z,13.64
2022-10-04T16:32:21.361Z,13.53
2022-10-04T16:34:57.345Z,13.11
2022-10-04T16:37:24.105Z,13.25
2022-10-04T16:40:00.125Z,13.16
2022-10-04T16:42:45.676Z,12.89
2022-10-04T16:45:12.407Z,12.86
2022-10-04T16:48:23.313Z,12.39
2022-10-04T16:51:05.441Z,12.43
2022-10-04T16:54:04.821Z,12.34
2022-10-04T16:56:57.276Z,12.02
2022-10-04T16:59:39.450Z,11.65
2022-10-04T17:02:36.413Z,11.28
2022-10-04T17:05:19.194Z,11.25
2022-10-04T17:08:05.367Z,11.11
2022-10-04T17:11:16.173Z,11.17
2022-10-04T17:14:01.898Z,11.00
2022-10-04T17:16:46.856Z,11.10
2022-10-04T17:19:29.420Z,11.05
2022-10-04T17:22:04.170Z,11.18
2022-10-04T17:24:33.800Z,10.89
2022-10-04T17:27:19.042Z,10.68
2022-10-04T17:30:04.400Z,10.50
2022-10-04T17:32:48.703Z,10.39
2022-10-04T17:35:47.707Z,10.50
2022-10-04T17:38:24.254Z,10.28
2022-10-04T17:41:03.667Z,10.14
2022-10-04T17:43:35.288Z,10.23
2022-10-04T17:46:30.676Z,10.26
2022-10-04T17:49:19.527Z,9.77
2022-10-04T17:52:07.823Z,9.58
2022-10-04T17:54:53.200Z,9.59
2022-10-04T17:57:42.328Z,9.56
2022-10-04T18:00:13.453Z,9.61
2022-10-04T18:02:55.537Z,9.44
2022-10-04T18:05:28.646Z,9.40
2022-10-04T18:08:17.844Z,9.28
2022-10-04T18:10:52.420Z,9.45
2022-10-04T18:13:49.925Z,9.54
2022-10-04T18:16:23.872Z,9.17
2022-10-04T18:18:51.068Z,9.23
2022-10-04T18:21:31.570Z,9.32
2022-10-04T18:24:19.386Z,9.17
2022-10-04T18:27:01.004Z,9.00
2022-10-04T18:29:43.335Z,8.91
2022-10-04T18:32:34.063Z,8.79
2022-10-04T18:35:21.769Z,8.77
2022-10-04T18:37:49.847Z,8.75
2022-10-04T18:40:31.990Z,8.41
2022-10-04T18:43:01.823Z,8.91
2022-10-04T18:45:32.614Z,8.39
2022-10-04T18:48:01.660Z,8.23
2022-10-04T18:50:44.912Z,8.09
2022-10-04T18:53:43.690Z,7.77
2022-10-04T18:56:12.507Z,7.90
2022-10-04T18:59:22.512Z,8.05
2022-10-04T19:02:24.195Z,8.09
2022-10-04T19:05:05.315Z,8.19
2022-10-04T19:07:53.460Z,8.15
2022-10-04T19:10:34.574Z,8.14
2022-10-04T19:13:03.871Z,7.48
2022-10-04T19:15:42.743Z,7.38
2022-10-04T19:18:27.708Z,7.88
2022-10-04T19:21:06.279Z,7.52
2022-10-04T19:23:38.985Z,7.67
2022-10-04T19:29:13.305Z,7.62
2022-10-04T19:32:07.860Z,7.72
2022-10-04T19:35:00.853Z,7.69
2022-10-04T19:37:37.857Z,7.50
2022-10-04T19:40:17.547Z,7.37
2022-10-04T19:43:03.876Z,7.30
2022-10-04T19:45:33.567Z,7.45
2022-10-04T19:48:08.690Z,7.40
2022-10-04T19:50:42.586Z,7.47
2022-10-04T19:53:52.173Z,7.47
2022-10-04T19:56:23.802Z,7.08
2022-10-04T19:59:04.687Z,7.36
2022-10-04T20:01:31.952Z,6.90
2022-10-04T20:04:17.225Z,6.79
2022-10-04T20:07:11.614Z,6.95
2022-10-04T20:09:41.059Z,7.09
2022-10-04T20:12:38.383Z,6.81
2022-10-04T20:15:27.987Z,7.02
2022-10-04T20:17:56.359Z,6.37
2022-10-04T20:20:38.691Z,7.08
2022-10-04T20:23:09.694Z,6.76
2022-10-04T20:25:45.845Z,6.94
2022-10-04T20:28:32.921Z,6.77
2022-10-04T20:31:01.981Z,6.37
2022-10-04T20:33:34.702Z,6.41
2022-10-04T20:36:09.481Z,6.28
2022-10-04T20:39:01.489Z,6.48
2022-10-04T20:41:28.064Z,6.61
2022-10-04T20:44:02.649Z,6.10
2022-10-04T20:46:38.402Z,6.27
2022-10-04T20:49:15.631Z,6.01
2022-10-04T20:51:49.856Z,6.44
2022-10-04T20:54:18.259Z,6.57
2022-10-04T20:56:49.851Z,6.10
2022-10-04T20:59:18.041Z,6.42
2022-10-04T21:02:05.004Z,6.14
2022-10-04T21:04:42.386Z,5.80
2022-10-04T21:07:14.339Z,6.05
2022-10-04T21:09:42.106Z,6.16
2022-10-04T21:12:34.080Z,6.05
2022-10-04T21:15:07.922Z,5.75
2022-10-04T21:17:36.867Z,5.79
2022-10-04T21:20:04.876Z,5.44
2022-10-04T21:22:33.878Z,5.97
2022-10-04T21:25:03.964Z,5.91
2022-10-04T21:27:31.960Z,5.87
2022-10-04T21:29:59.699Z,5.54
2022-10-04T21:32:27.554Z,5.61
2022-10-04T21:34:54.861Z,5.09
2022-10-04T21:37:21.797Z,4.72
2022-10-04T21:39:48.637Z,4.96
2022-10-04T21:42:15.406Z,5.30
2022-10-04T21:44:42.390Z,5.60
2022-10-04T21:47:10.199Z,5.62
2022-10-04T21:49:37.011Z,5.70
2022-10-04T21:52:03.882Z,5.39
2022-10-04T21:54:30.630Z,5.60
2022-10-04T21:56:57.507Z,5.41
2022-10-04T21:59:24.302Z,5.33
2022-10-04T22:01:51.840Z,5.62
2022-10-04T22:04:19.342Z,5.45
2022-10-04T22:06:46.302Z,5.37
2022-10-04T22:09:13.124Z,5.17
2022-10-04T22:11:39.934Z,5.25
2022-10-04T22:14:06.531Z,5.10
2022-10-04T22:16:33.249Z,5.16
2022-10-04T22:18:59.881Z,4.89
2022-10-04T22:21:26.610Z,5.12
2022-10-04T22:23:53.314Z,5.32
2022-10-04T22:26:22.007Z,5.29
2022-10-04T22:28:54.128Z,5.24
2022-10-04T22:31:28.733Z,4.87
2022-10-04T22:33:56.022Z,4.98
2022-10-04T22:36:38.392Z,5.12
2022-10-04T22:39:07.837Z,5.26
2022-10-04T22:41:38.958Z,5.26
2022-10-04T22:44:18.271Z,4.93
2022-10-04T22:46:48.841Z,4.90
2022-10-04T22:49:17.885Z,5.08
2022-10-04T22:51:47.368Z,5.06
2022-10-04T22:54:17.785Z,5.18
2022-10-04T22:56:44.947Z,4.81
2022-10-04T22:59:14.973Z,5.18
2022-10-04T23:01:43.502Z,4.63
2022-10-04T23:04:20.967Z,5.15
2022-10-04T23:06:48.386Z,4.98
2022-10-04T23:09:15.577Z,5.07
2022-10-04T23:11:42.741Z,4.83
2022-10-04T23:14:09.357Z,4.80
2022-10-04T23:16:37.007Z,4.96
2022-10-04T23:19:12.219Z,4.53
2022-10-04T23:21:41.441Z,4.59
2022-10-04T23:24:22.296Z,4.45
2022-10-04T23:26:55.846Z,4.53
2022-10-04T23:29:33.482Z,4.52
2022-10-04T23:32:09.026Z,4.72
2022-10-04T23:34:38.227Z,4.70
2022-10-04T23:37:17.791Z,4.59
2022-10-04T23:39:44.842Z,4.51
2022-10-04T23:42:20.554Z,4.63
2022-10-04T23:44:49.759Z,4.72
2022-10-04T23:47:19.623Z,4.64
2022-10-04T23:49:48.584Z,4.68
2022-10-04T23:52:18.158Z,4.65
2022-10-04T23:54:44.847Z,4.51
2022-10-04T23:57:20.145Z,4.41
2022-10-04T23:59:47.374Z,4.51
